sensor_id;sensor_type;location;lat;lon;timestamp;P1;durP1;ratioP1;P2;durP2;ratioP2
10283;SDS011;5187;52.378;9.018;2022-07-29T00:02:25;1.47;;;1.30;;
10283;SDS011;5187;52.378;9.018;2022-07-29T00:04:55;4.03;;;1.50;;
10283;SDS011;5187;52.378;9.018;2022-07-29T00:07:23;2.60;;;1.33;;
10283;SDS011;5187;52.378;9.018;2022-07-29T00:09:52;5.30;;;1.50;;
10283;SDS011;5187;52.378;9.018;2022-07-29T00:12:21;4.17;;;1.60;;
10283;SDS011;5187;52.378;9.018;2022-07-29T00:14:52;2.50;;;1.27;;
10283;SDS011;5187;52.378;9.018;2022-07-29T00:17:20;2.27;;;1.33;;
10283;SDS011;5187;52.378;9.018;2022-07-29T00:19:49;4.67;;;1.30;;
10283;SDS011;5187;52.378;9.018;2022-07-29T00:22:19;4.47;;;1.50;;
10283;SDS011;5187;52.378;9.018;2022-07-29T00:24:48;1.97;;;1.37;;
10283;SDS011;5187;52.378;9.018;2022-07-29T00:27:16;2.30;;;1.33;;
10283;SDS011;5187;52.378;9.018;2022-07-29T00:29:45;4.17;;;1.70;;
10283;SDS011;5187;52.378;9.018;2022-07-29T00:32:13;3.40;;;1.30;;
10283;SDS011;5187;52.378;9.018;2022-07-29T00:34:42;5.73;;;1.53;;
10283;SDS011;5187;52.378;9.018;2022-07-29T00:37:30;4.00;;;1.63;;
10283;SDS011;5187;52.378;9.018;2022-07-29T00:39:59;3.60;;;1.50;;
10283;SDS011;5187;52.378;9.018;2022-07-29T00:42:27;4.47;;;1.50;;
10283;SDS011;5187;52.378;9.018;2022-07-29T00:44:55;2.93;;;1.60;;
10283;SDS011;5187;52.378;9.018;2022-07-29T00:47:24;4.20;;;1.40;;
10283;SDS011;5187;52.378;9.018;2022-07-29T00:49:52;3.53;;;1.60;;
10283;SDS011;5187;52.378;9.018;2022-07-29T00:52:21;3.97;;;1.47;;
10283;SDS011;5187;52.378;9.018;2022-07-29T00:54:51;2.63;;;1.33;;
10283;SDS011;5187;52.378;9.018;2022-07-29T00:57:19;4.17;;;1.50;;
10283;SDS011;5187;52.378;9.018;2022-07-29T00:59:48;3.07;;;1.33;;
10283;SDS011;5187;52.378;9.018;2022-07-29T01:02:16;5.23;;;1.63;;
10283;SDS011;5187;52.378;9.018;2022-07-29T01:04:45;3.13;;;1.40;;
10283;SDS011;5187;52.378;9.018;2022-07-29T01:07:13;2.80;;;1.60;;
10283;SDS011;5187;52.378;9.018;2022-07-29T01:09:42;2.70;;;1.20;;
10283;SDS011;5187;52.378;9.018;2022-07-29T01:12:15;3.13;;;1.50;;
10283;SDS011;5187;52.378;9.018;2022-07-29T01:14:44;4.40;;;1.37;;
10283;SDS011;5187;52.378;9.018;2022-07-29T01:17:15;3.27;;;1.30;;
10283;SDS011;5187;52.378;9.018;2022-07-29T01:19:47;2.23;;;1.37;;
10283;SDS011;5187;52.378;9.018;2022-07-29T01:22:24;2.47;;;1.50;;
10283;SDS011;5187;52.378;9.018;2022-07-29T01:25:10;4.47;;;1.77;;
10283;SDS011;5187;52.378;9.018;2022-07-29T01:27:47;3.73;;;1.40;;
10283;SDS011;5187;52.378;9.018;2022-07-29T01:30:21;2.60;;;1.60;;
10283;SDS011;5187;52.378;9.018;2022-07-29T01:32:52;4.70;;;1.80;;
10283;SDS011;5187;52.378;9.018;2022-07-29T01:35:23;3.33;;;1.43;;
10283;SDS011;5187;52.378;9.018;2022-07-29T01:37:55;2.40;;;1.50;;
10283;SDS011;5187;52.378;9.018;2022-07-29T01:40:26;2.40;;;1.50;;
10283;SDS011;5187;52.378;9.018;2022-07-29T01:42:58;5.57;;;1.60;;
10283;SDS011;5187;52.378;9.018;2022-07-29T01:45:30;3.27;;;1.47;;
10283;SDS011;5187;52.378;9.018;2022-07-29T01:48:02;3.40;;;1.60;;
10283;SDS011;5187;52.378;9.018;2022-07-29T01:50:32;2.67;;;1.60;;
10283;SDS011;5187;52.378;9.018;2022-07-29T01:53:02;4.63;;;1.70;;
10283;SDS011;5187;52.378;9.018;2022-07-29T01:55:34;3.57;;;1.70;;
10283;SDS011;5187;52.378;9.018;2022-07-29T01:58:03;4.53;;;1.60;;
10283;SDS011;5187;52.378;9.018;2022-07-29T02:00:33;2.60;;;1.47;;
10283;SDS011;5187;52.378;9.018;2022-07-29T02:03:03;2.30;;;1.50;;
10283;SDS011;5187;52.378;9.018;2022-07-29T02:05:33;4.50;;;1.53;;
10283;SDS011;5187;52.378;9.018;2022-07-29T02:08:03;3.37;;;1.70;;
10283;SDS011;5187;52.378;9.018;2022-07-29T02:10:32;3.23;;;1.40;;
10283;SDS011;5187;52.378;9.018;2022-07-29T02:13:01;3.00;;;1.67;;
10283;SDS011;5187;52.378;9.018;2022-07-29T02:15:31;4.67;;;1.50;;
10283;SDS011;5187;52.378;9.018;2022-07-29T02:18:02;3.23;;;1.20;;
10283;SDS011;5187;52.378;9.018;2022-07-29T02:20:33;3.37;;;1.43;;
10283;SDS011;5187;52.378;9.018;2022-07-29T02:23:02;4.03;;;1.70;;
10283;SDS011;5187;52.378;9.018;2022-07-29T02:25:31;3.00;;;1.47;;
10283;SDS011;5187;52.378;9.018;2022-07-29T02:28:03;3.50;;;1.43;;
10283;SDS011;5187;52.378;9.018;2022-07-29T02:30:32;2.90;;;1.40;;
10283;SDS011;5187;52.378;9.018;2022-07-29T02:33:03;2.40;;;1.67;;
10283;SDS011;5187;52.378;9.018;2022-07-29T02:35:32;3.97;;;1.50;;
10283;SDS011;5187;52.378;9.018;2022-07-29T02:38:00;5.20;;;1.40;;
10283;SDS011;5187;52.378;9.018;2022-07-29T02:40:47;2.30;;;1.33;;
10283;SDS011;5187;52.378;9.018;2022-07-29T02:43:16;4.00;;;1.50;;
10283;SDS011;5187;52.378;9.018;2022-07-29T02:45:45;2.40;;;1.50;;
10283;SDS011;5187;52.378;9.018;2022-07-29T02:48:18;2.37;;;1.60;;
10283;SDS011;5187;52.378;9.018;2022-07-29T02:50:52;2.70;;;1.70;;
10283;SDS011;5187;52.378;9.018;2022-07-29T02:53:23;3.80;;;1.50;;
10283;SDS011;5187;52.378;9.018;2022-07-29T02:55:55;6.33;;;1.77;;
10283;SDS011;5187;52.378;9.018;2022-07-29T02:58:24;2.87;;;1.60;;
10283;SDS011;5187;52.378;9.018;2022-07-29T03:00:55;4.47;;;1.60;;
10283;SDS011;5187;52.378;9.018;2022-07-29T03:03:27;2.83;;;1.60;;
10283;SDS011;5187;52.378;9.018;2022-07-29T03:05:57;4.23;;;1.60;;
10283;SDS011;5187;52.378;9.018;2022-07-29T03:08:26;3.33;;;1.63;;
10283;SDS011;5187;52.378;9.018;2022-07-29T03:10:55;4.07;;;1.50;;
10283;SDS011;5187;52.378;9.018;2022-07-29T03:13:24;3.20;;;1.50;;
10283;SDS011;5187;52.378;9.018;2022-07-29T03:15:53;2.83;;;1.50;;
10283;SDS011;5187;52.378;9.018;2022-07-29T03:18:22;3.00;;;1.30;;
10283;SDS011;5187;52.378;9.018;2022-07-29T03:20:51;3.23;;;1.60;;
10283;SDS011;5187;52.378;9.018;2022-07-29T03:23:20;5.87;;;1.70;;
10283;SDS011;5187;52.378;9.018;2022-07-29T03:25:50;3.73;;;1.60;;
10283;SDS011;5187;52.378;9.018;2022-07-29T03:28:19;2.27;;;1.40;;
10283;SDS011;5187;52.378;9.018;2022-07-29T03:30:52;2.33;;;1.50;;
10283;SDS011;5187;52.378;9.018;2022-07-29T03:33:21;3.37;;;1.40;;
10283;SDS011;5187;52.378;9.018;2022-07-29T03:35:49;3.40;;;1.50;;
10283;SDS011;5187;52.378;9.018;2022-07-29T03:38:19;2.60;;;1.57;;
10283;SDS011;5187;52.378;9.018;2022-07-29T03:40:51;3.60;;;1.47;;
10283;SDS011;5187;52.378;9.018;2022-07-29T03:43:21;2.63;;;1.60;;
10283;SDS011;5187;52.378;9.018;2022-07-29T03:45:52;2.40;;;1.40;;
10283;SDS011;5187;52.378;9.018;2022-07-29T03:48:22;5.67;;;2.00;;
10283;SDS011;5187;52.378;9.018;2022-07-29T03:50:51;2.43;;;1.40;;
10283;SDS011;5187;52.378;9.018;2022-07-29T03:53:21;6.27;;;1.90;;
10283;SDS011;5187;52.378;9.018;2022-07-29T03:55:52;4.03;;;1.60;;
10283;SDS011;5187;52.378;9.018;2022-07-29T03:58:21;3.60;;;1.57;;
10283;SDS011;5187;52.378;9.018;2022-07-29T04:00:51;3.43;;;1.60;;
10283;SDS011;5187;52.378;9.018;2022-07-29T04:03:20;2.80;;;1.60;;
10283;SDS011;5187;52.378;9.018;2022-07-29T04:05:57;3.47;;;1.77;;
10283;SDS011;5187;52.378;9.018;2022-07-29T04:08:27;3.10;;;1.57;;
10283;SDS011;5187;52.378;9.018;2022-07-29T04:10:55;2.83;;;1.80;;
10283;SDS011;5187;52.378;9.018;2022-07-29T04:13:24;2.87;;;1.40;;
10283;SDS011;5187;52.378;9.018;2022-07-29T04:15:52;2.50;;;1.57;;
10283;SDS011;5187;52.378;9.018;2022-07-29T04:18:21;2.47;;;1.40;;
10283;SDS011;5187;52.378;9.018;2022-07-29T04:20:49;2.73;;;1.50;;
10283;SDS011;5187;52.378;9.018;2022-07-29T04:23:18;6.83;;;1.90;;
10283;SDS011;5187;52.378;9.018;2022-07-29T04:25:47;3.37;;;1.60;;
10283;SDS011;5187;52.378;9.018;2022-07-29T04:28:16;4.47;;;1.70;;
10283;SDS011;5187;52.378;9.018;2022-07-29T04:30:44;5.13;;;1.40;;
10283;SDS011;5187;52.378;9.018;2022-07-29T04:33:13;4.37;;;1.67;;
10283;SDS011;5187;52.378;9.018;2022-07-29T04:35:41;2.77;;;1.50;;
10283;SDS011;5187;52.378;9.018;2022-07-29T04:38:15;3.13;;;1.60;;
10283;SDS011;5187;52.378;9.018;2022-07-29T04:40:44;2.47;;;1.37;;
10283;SDS011;5187;52.378;9.018;2022-07-29T04:43:16;3.30;;;1.50;;
10283;SDS011;5187;52.378;9.018;2022-07-29T04:45:48;2.47;;;1.47;;
10283;SDS011;5187;52.378;9.018;2022-07-29T04:48:17;3.37;;;1.57;;
10283;SDS011;5187;52.378;9.018;2022-07-29T04:50:53;3.27;;;1.80;;
10283;SDS011;5187;52.378;9.018;2022-07-29T04:53:21;3.20;;;1.60;;
10283;SDS011;5187;52.378;9.018;2022-07-29T04:55:50;5.83;;;1.60;;
10283;SDS011;5187;52.378;9.018;2022-07-29T04:58:20;2.73;;;1.33;;
10283;SDS011;5187;52.378;9.018;2022-07-29T05:00:49;7.77;;;2.37;;
10283;SDS011;5187;52.378;9.018;2022-07-29T05:03:18;4.07;;;1.70;;
10283;SDS011;5187;52.378;9.018;2022-07-29T05:05:46;3.60;;;1.60;;
10283;SDS011;5187;52.378;9.018;2022-07-29T05:08:15;3.33;;;1.50;;
10283;SDS011;5187;52.378;9.018;2022-07-29T05:10:44;4.13;;;1.70;;
10283;SDS011;5187;52.378;9.018;2022-07-29T05:13:14;2.77;;;1.60;;
10283;SDS011;5187;52.378;9.018;2022-07-29T05:15:44;4.33;;;1.63;;
10283;SDS011;5187;52.378;9.018;2022-07-29T05:18:13;4.60;;;1.53;;
10283;SDS011;5187;52.378;9.018;2022-07-29T05:20:41;2.33;;;1.40;;
10283;SDS011;5187;52.378;9.018;2022-07-29T05:23:10;6.17;;;1.50;;
10283;SDS011;5187;52.378;9.018;2022-07-29T05:25:40;2.13;;;1.50;;
10283;SDS011;5187;52.378;9.018;2022-07-29T05:28:10;4.03;;;1.60;;
10283;SDS011;5187;52.378;9.018;2022-07-29T05:30:38;6.23;;;1.70;;
10283;SDS011;5187;52.378;9.018;2022-07-29T05:33:08;4.07;;;2.07;;
10283;SDS011;5187;52.378;9.018;2022-07-29T05:35:57;3.70;;;1.63;;
10283;SDS011;5187;52.378;9.018;2022-07-29T05:38:26;5.87;;;1.80;;
10283;SDS011;5187;52.378;9.018;2022-07-29T05:40:56;3.87;;;1.63;;
10283;SDS011;5187;52.378;9.018;2022-07-29T05:43:25;3.87;;;1.73;;
10283;SDS011;5187;52.378;9.018;2022-07-29T05:45:53;3.53;;;1.70;;
10283;SDS011;5187;52.378;9.018;2022-07-29T05:48:23;2.50;;;1.60;;
10283;SDS011;5187;52.378;9.018;2022-07-29T05:50:52;3.23;;;2.07;;
10283;SDS011;5187;52.378;9.018;2022-07-29T05:53:21;3.43;;;1.67;;
10283;SDS011;5187;52.378;9.018;2022-07-29T05:55:49;3.70;;;1.70;;
10283;SDS011;5187;52.378;9.018;2022-07-29T05:58:18;4.17;;;1.60;;
10283;SDS011;5187;52.378;9.018;2022-07-29T06:00:47;4.97;;;1.67;;
10283;SDS011;5187;52.378;9.018;2022-07-29T06:03:16;2.67;;;1.73;;
10283;SDS011;5187;52.378;9.018;2022-07-29T06:05:45;2.00;;;1.73;;
10283;SDS011;5187;52.378;9.018;2022-07-29T06:08:14;3.67;;;1.50;;
10283;SDS011;5187;52.378;9.018;2022-07-29T06:10:43;3.40;;;1.80;;
10283;SDS011;5187;52.378;9.018;2022-07-29T06:13:12;5.00;;;1.60;;
10283;SDS011;5187;52.378;9.018;2022-07-29T06:15:42;4.13;;;1.50;;
10283;SDS011;5187;52.378;9.018;2022-07-29T06:18:11;2.73;;;1.73;;
10283;SDS011;5187;52.378;9.018;2022-07-29T06:20:40;4.07;;;1.67;;
10283;SDS011;5187;52.378;9.018;2022-07-29T06:23:10;4.07;;;1.63;;
10283;SDS011;5187;52.378;9.018;2022-07-29T06:25:39;3.33;;;1.60;;
10283;SDS011;5187;52.378;9.018;2022-07-29T06:28:08;4.93;;;1.80;;
10283;SDS011;5187;52.378;9.018;2022-07-29T06:30:36;6.93;;;2.00;;
10283;SDS011;5187;52.378;9.018;2022-07-29T06:33:05;4.97;;;1.80;;
10283;SDS011;5187;52.378;9.018;2022-07-29T06:35:33;5.60;;;2.00;;
10283;SDS011;5187;52.378;9.018;2022-07-29T06:38:08;4.30;;;1.63;;
10283;SDS011;5187;52.378;9.018;2022-07-29T06:40:58;3.73;;;1.83;;
10283;SDS011;5187;52.378;9.018;2022-07-29T06:43:28;5.27;;;1.73;;
10283;SDS011;5187;52.378;9.018;2022-07-29T06:45:58;4.50;;;2.07;;
10283;SDS011;5187;52.378;9.018;2022-07-29T06:48:27;4.27;;;1.70;;
10283;SDS011;5187;52.378;9.018;2022-07-29T06:50:56;4.07;;;1.80;;
10283;SDS011;5187;52.378;9.018;2022-07-29T06:53:25;2.97;;;1.60;;
10283;SDS011;5187;52.378;9.018;2022-07-29T06:55:53;5.03;;;1.80;;
10283;SDS011;5187;52.378;9.018;2022-07-29T06:58:23;4.70;;;2.03;;
10283;SDS011;5187;52.378;9.018;2022-07-29T07:00:52;4.67;;;2.00;;
10283;SDS011;5187;52.378;9.018;2022-07-29T07:03:21;2.47;;;1.63;;
10283;SDS011;5187;52.378;9.018;2022-07-29T07:05:49;5.90;;;1.87;;
10283;SDS011;5187;52.378;9.018;2022-07-29T07:08:18;3.97;;;1.90;;
10283;SDS011;5187;52.378;9.018;2022-07-29T07:10:46;3.25;;;1.77;;
10283;SDS011;5187;52.378;9.018;2022-07-29T07:13:15;3.63;;;1.97;;
10283;SDS011;5187;52.378;9.018;2022-07-29T07:15:46;4.33;;;1.90;;
10283;SDS011;5187;52.378;9.018;2022-07-29T07:18:15;5.20;;;2.08;;
10283;SDS011;5187;52.378;9.018;2022-07-29T07:20:44;6.70;;;2.40;;
10283;SDS011;5187;52.378;9.018;2022-07-29T07:23:12;3.78;;;1.83;;
10283;SDS011;5187;52.378;9.018;2022-07-29T07:25:41;3.70;;;2.00;;
10283;SDS011;5187;52.378;9.018;2022-07-29T07:28:09;5.40;;;1.83;;
10283;SDS011;5187;52.378;9.018;2022-07-29T07:30:38;4.22;;;1.90;;
10283;SDS011;5187;52.378;9.018;2022-07-29T07:33:08;5.32;;;2.25;;
10283;SDS011;5187;52.378;9.018;2022-07-29T07:35:37;5.55;;;2.10;;
10283;SDS011;5187;52.378;9.018;2022-07-29T07:38:05;4.20;;;2.00;;
10283;SDS011;5187;52.378;9.018;2022-07-29T07:40:34;6.55;;;2.40;;
10283;SDS011;5187;52.378;9.018;2022-07-29T07:43:02;4.80;;;1.88;;
10283;SDS011;5187;52.378;9.018;2022-07-29T07:45:30;3.85;;;2.10;;
10283;SDS011;5187;52.378;9.018;2022-07-29T07:48:00;4.60;;;2.40;;
10283;SDS011;5187;52.378;9.018;2022-07-29T07:50:30;3.45;;;2.13;;
10283;SDS011;5187;52.378;9.018;2022-07-29T07:52:58;4.32;;;2.00;;
10283;SDS011;5187;52.378;9.018;2022-07-29T07:55:28;5.03;;;1.85;;
10283;SDS011;5187;52.378;9.018;2022-07-29T07:58:17;3.72;;;1.83;;
10283;SDS011;5187;52.378;9.018;2022-07-29T08:00:45;4.05;;;2.10;;
10283;SDS011;5187;52.378;9.018;2022-07-29T08:03:14;3.65;;;1.90;;
10283;SDS011;5187;52.378;9.018;2022-07-29T08:05:46;5.10;;;1.90;;
10283;SDS011;5187;52.378;9.018;2022-07-29T08:08:17;3.85;;;1.95;;
10283;SDS011;5187;52.378;9.018;2022-07-29T08:10:46;4.95;;;2.20;;
10283;SDS011;5187;52.378;9.018;2022-07-29T08:13:22;7.55;;;1.95;;
10283;SDS011;5187;52.378;9.018;2022-07-29T08:15:51;6.35;;;2.40;;
10283;SDS011;5187;52.378;9.018;2022-07-29T08:18:25;5.15;;;2.00;;
10283;SDS011;5187;52.378;9.018;2022-07-29T08:20:56;5.45;;;2.15;;
10283;SDS011;5187;52.378;9.018;2022-07-29T08:23:24;5.13;;;2.00;;
10283;SDS011;5187;52.378;9.018;2022-07-29T08:26:14;5.15;;;2.25;;
10283;SDS011;5187;52.378;9.018;2022-07-29T08:28:44;4.78;;;2.00;;
10283;SDS011;5187;52.378;9.018;2022-07-29T08:31:16;3.80;;;1.95;;
10283;SDS011;5187;52.378;9.018;2022-07-29T08:33:45;5.95;;;2.10;;
10283;SDS011;5187;52.378;9.018;2022-07-29T08:36:14;3.85;;;1.90;;
10283;SDS011;5187;52.378;9.018;2022-07-29T08:38:43;6.47;;;1.95;;
10283;SDS011;5187;52.378;9.018;2022-07-29T08:41:12;6.07;;;2.40;;
10283;SDS011;5187;52.378;9.018;2022-07-29T08:43:40;4.85;;;2.20;;
10283;SDS011;5187;52.378;9.018;2022-07-29T08:46:09;5.35;;;1.90;;
10283;SDS011;5187;52.378;9.018;2022-07-29T08:48:38;7.80;;;2.40;;
10283;SDS011;5187;52.378;9.018;2022-07-29T08:51:07;6.25;;;2.00;;
10283;SDS011;5187;52.378;9.018;2022-07-29T08:53:37;6.97;;;2.33;;
10283;SDS011;5187;52.378;9.018;2022-07-29T08:56:07;4.97;;;1.90;;
10283;SDS011;5187;52.378;9.018;2022-07-29T08:58:39;4.25;;;2.35;;
10283;SDS011;5187;52.378;9.018;2022-07-29T09:01:17;3.78;;;2.13;;
10283;SDS011;5187;52.378;9.018;2022-07-29T09:04:04;4.75;;;2.40;;
10283;SDS011;5187;52.378;9.018;2022-07-29T09:06:34;5.28;;;1.92;;
10283;SDS011;5187;52.378;9.018;2022-07-29T09:09:05;3.55;;;2.13;;
10283;SDS011;5187;52.378;9.018;2022-07-29T09:11:36;4.53;;;2.30;;
10283;SDS011;5187;52.378;9.018;2022-07-29T09:14:04;5.00;;;2.47;;
10283;SDS011;5187;52.378;9.018;2022-07-29T09:16:47;4.70;;;2.30;;
10283;SDS011;5187;52.378;9.018;2022-07-29T09:19:19;7.13;;;2.20;;
10283;SDS011;5187;52.378;9.018;2022-07-29T09:21:48;5.90;;;2.10;;
10283;SDS011;5187;52.378;9.018;2022-07-29T09:24:43;4.78;;;2.20;;
10283;SDS011;5187;52.378;9.018;2022-07-29T09:27:18;3.38;;;2.40;;
10283;SDS011;5187;52.378;9.018;2022-07-29T09:29:55;7.53;;;2.20;;
10283;SDS011;5187;52.378;9.018;2022-07-29T09:32:25;3.58;;;2.20;;
10283;SDS011;5187;52.378;9.018;2022-07-29T09:37:38;3.53;;;2.10;;
10283;SDS011;5187;52.378;9.018;2022-07-29T09:40:12;5.25;;;1.95;;
10283;SDS011;5187;52.378;9.018;2022-07-29T09:42:42;3.90;;;2.25;;
10283;SDS011;5187;52.378;9.018;2022-07-29T09:45:11;7.35;;;2.67;;
10283;SDS011;5187;52.378;9.018;2022-07-29T09:47:40;4.88;;;2.53;;
10283;SDS011;5187;52.378;9.018;2022-07-29T09:50:11;5.63;;;2.10;;
10283;SDS011;5187;52.378;9.018;2022-07-29T09:52:47;4.63;;;2.38;;
10283;SDS011;5187;52.378;9.018;2022-07-29T09:55:17;6.85;;;1.98;;
10283;SDS011;5187;52.378;9.018;2022-07-29T09:57:46;5.30;;;2.15;;
10283;SDS011;5187;52.378;9.018;2022-07-29T10:00:16;3.72;;;2.03;;
10283;SDS011;5187;52.378;9.018;2022-07-29T10:02:45;6.80;;;2.30;;
10283;SDS011;5187;52.378;9.018;2022-07-29T10:05:19;3.75;;;2.60;;
10283;SDS011;5187;52.378;9.018;2022-07-29T10:07:48;3.67;;;2.00;;
10283;SDS011;5187;52.378;9.018;2022-07-29T10:10:22;6.20;;;2.33;;
10283;SDS011;5187;52.378;9.018;2022-07-29T10:12:53;4.00;;;2.28;;
10283;SDS011;5187;52.378;9.018;2022-07-29T10:15:23;8.02;;;2.38;;
10283;SDS011;5187;52.378;9.018;2022-07-29T10:17:52;4.13;;;2.13;;
10283;SDS011;5187;52.378;9.018;2022-07-29T10:20:21;5.07;;;2.00;;
10283;SDS011;5187;52.378;9.018;2022-07-29T10:22:50;5.00;;;2.40;;
10283;SDS011;5187;52.378;9.018;2022-07-29T10:25:20;6.00;;;2.35;;
10283;SDS011;5187;52.378;9.018;2022-07-29T10:27:50;4.68;;;2.15;;
10283;SDS011;5187;52.378;9.018;2022-07-29T10:30:20;4.20;;;2.15;;
10283;SDS011;5187;52.378;9.018;2022-07-29T10:32:54;4.97;;;2.00;;
10283;SDS011;5187;52.378;9.018;2022-07-29T10:38:15;6.03;;;2.40;;
10283;SDS011;5187;52.378;9.018;2022-07-29T10:40:52;9.10;;;2.30;;
10283;SDS011;5187;52.378;9.018;2022-07-29T10:44:02;7.15;;;2.13;;
10283;SDS011;5187;52.378;9.018;2022-07-29T10:46:34;4.97;;;2.33;;
10283;SDS011;5187;52.378;9.018;2022-07-29T10:49:05;4.85;;;2.10;;
10283;SDS011;5187;52.378;9.018;2022-07-29T10:54:39;5.85;;;2.25;;
10283;SDS011;5187;52.378;9.018;2022-07-29T10:57:13;4.70;;;2.22;;
10283;SDS011;5187;52.378;9.018;2022-07-29T10:59:43;3.42;;;2.15;;
10283;SDS011;5187;52.378;9.018;2022-07-29T11:05:09;4.50;;;2.22;;
10283;SDS011;5187;52.378;9.018;2022-07-29T11:07:39;3.47;;;2.20;;
10283;SDS011;5187;52.378;9.018;2022-07-29T11:10:22;4.43;;;2.20;;
10283;SDS011;5187;52.378;9.018;2022-07-29T11:12:56;7.80;;;2.15;;
10283;SDS011;5187;52.378;9.018;2022-07-29T11:15:26;6.85;;;2.70;;
10283;SDS011;5187;52.378;9.018;2022-07-29T11:18:07;5.72;;;2.17;;
10283;SDS011;5187;52.378;9.018;2022-07-29T11:20:41;3.88;;;2.10;;
10283;SDS011;5187;52.378;9.018;2022-07-29T11:23:17;3.15;;;2.00;;
10283;SDS011;5187;52.378;9.018;2022-07-29T11:25:54;3.75;;;2.00;;
10283;SDS011;5187;52.378;9.018;2022-07-29T11:28:49;5.18;;;2.30;;
10283;SDS011;5187;52.378;9.018;2022-07-29T11:31:31;8.52;;;2.15;;
10283;SDS011;5187;52.378;9.018;2022-07-29T11:39:33;4.75;;;2.10;;
10283;SDS011;5187;52.378;9.018;2022-07-29T11:45:06;5.25;;;2.17;;
10283;SDS011;5187;52.378;9.018;2022-07-29T11:48:01;3.63;;;2.17;;
10283;SDS011;5187;52.378;9.018;2022-07-29T11:50:52;5.93;;;2.25;;
10283;SDS011;5187;52.378;9.018;2022-07-29T11:53:23;5.60;;;2.33;;
10283;SDS011;5187;52.378;9.018;2022-07-29T11:55:58;5.53;;;2.15;;
10283;SDS011;5187;52.378;9.018;2022-07-29T11:58:28;9.07;;;2.42;;
10283;SDS011;5187;52.378;9.018;2022-07-29T12:01:00;5.63;;;2.50;;
10283;SDS011;5187;52.378;9.018;2022-07-29T12:03:32;4.80;;;2.60;;
10283;SDS011;5187;52.378;9.018;2022-07-29T12:06:11;6.28;;;2.42;;
10283;SDS011;5187;52.378;9.018;2022-07-29T12:08:46;6.30;;;2.40;;
10283;SDS011;5187;52.378;9.018;2022-07-29T12:11:15;4.18;;;2.30;;
10283;SDS011;5187;52.378;9.018;2022-07-29T12:13:47;5.97;;;2.42;;
10283;SDS011;5187;52.378;9.018;2022-07-29T12:16:16;6.00;;;2.35;;
10283;SDS011;5187;52.378;9.018;2022-07-29T12:18:59;5.15;;;2.35;;
10283;SDS011;5187;52.378;9.018;2022-07-29T12:21:29;3.92;;;2.42;;
10283;SDS011;5187;52.378;9.018;2022-07-29T12:23:58;6.30;;;2.40;;
10283;SDS011;5187;52.378;9.018;2022-07-29T12:26:34;5.80;;;2.13;;
10283;SDS011;5187;52.378;9.018;2022-07-29T12:29:02;10.93;;;2.70;;
10283;SDS011;5187;52.378;9.018;2022-07-29T12:31:37;7.03;;;2.60;;
10283;SDS011;5187;52.378;9.018;2022-07-29T12:34:11;8.48;;;2.20;;
10283;SDS011;5187;52.378;9.018;2022-07-29T12:36:40;7.70;;;2.38;;
10283;SDS011;5187;52.378;9.018;2022-07-29T12:39:09;10.98;;;2.42;;
10283;SDS011;5187;52.378;9.018;2022-07-29T12:41:38;5.47;;;2.42;;
10283;SDS011;5187;52.378;9.018;2022-07-29T12:44:07;4.40;;;2.33;;
10283;SDS011;5187;52.378;9.018;2022-07-29T12:46:37;8.02;;;2.45;;
10283;SDS011;5187;52.378;9.018;2022-07-29T12:49:05;5.88;;;2.50;;
10283;SDS011;5187;52.378;9.018;2022-07-29T12:51:37;7.25;;;2.30;;
10283;SDS011;5187;52.378;9.018;2022-07-29T12:54:07;10.23;;;2.67;;
10283;SDS011;5187;52.378;9.018;2022-07-29T12:56:36;6.43;;;2.53;;
10283;SDS011;5187;52.378;9.018;2022-07-29T12:59:14;5.47;;;2.40;;
10283;SDS011;5187;52.378;9.018;2022-07-29T13:01:42;6.85;;;2.63;;
10283;SDS011;5187;52.378;9.018;2022-07-29T13:04:23;3.53;;;2.25;;
10283;SDS011;5187;52.378;9.018;2022-07-29T13:06:59;5.63;;;2.63;;
10283;SDS011;5187;52.378;9.018;2022-07-29T13:09:36;6.15;;;2.30;;
10283;SDS011;5187;52.378;9.018;2022-07-29T13:12:06;5.97;;;2.70;;
10283;SDS011;5187;52.378;9.018;2022-07-29T13:14:37;4.82;;;2.60;;
10283;SDS011;5187;52.378;9.018;2022-07-29T13:17:06;3.55;;;2.72;;
10283;SDS011;5187;52.378;9.018;2022-07-29T13:19:36;5.97;;;2.58;;
10283;SDS011;5187;52.378;9.018;2022-07-29T13:22:23;9.38;;;3.00;;
10283;SDS011;5187;52.378;9.018;2022-07-29T13:24:52;5.57;;;2.63;;
10283;SDS011;5187;52.378;9.018;2022-07-29T13:27:21;5.80;;;2.78;;
10283;SDS011;5187;52.378;9.018;2022-07-29T13:29:50;5.07;;;2.50;;
10283;SDS011;5187;52.378;9.018;2022-07-29T13:32:20;5.18;;;2.45;;
10283;SDS011;5187;52.378;9.018;2022-07-29T13:34:54;4.70;;;2.30;;
10283;SDS011;5187;52.378;9.018;2022-07-29T13:37:24;4.45;;;2.55;;
10283;SDS011;5187;52.378;9.018;2022-07-29T13:39:56;3.08;;;2.03;;
10283;SDS011;5187;52.378;9.018;2022-07-29T13:42:28;9.40;;;2.70;;
10283;SDS011;5187;52.378;9.018;2022-07-29T13:44:57;5.57;;;2.30;;
10283;SDS011;5187;52.378;9.018;2022-07-29T13:47:26;6.43;;;2.75;;
10283;SDS011;5187;52.378;9.018;2022-07-29T13:49:58;5.90;;;2.65;;
10283;SDS011;5187;52.378;9.018;2022-07-29T13:52:29;8.68;;;2.50;;
10283;SDS011;5187;52.378;9.018;2022-07-29T13:54:57;6.32;;;2.50;;
10283;SDS011;5187;52.378;9.018;2022-07-29T13:57:26;4.40;;;2.42;;
10283;SDS011;5187;52.378;9.018;2022-07-29T13:59:55;6.07;;;2.60;;
10283;SDS011;5187;52.378;9.018;2022-07-29T14:02:24;4.20;;;2.50;;
10283;SDS011;5187;52.378;9.018;2022-07-29T14:04:52;4.18;;;2.47;;
10283;SDS011;5187;52.378;9.018;2022-07-29T14:07:21;6.05;;;2.50;;
10283;SDS011;5187;52.378;9.018;2022-07-29T14:09:51;5.75;;;3.00;;
10283;SDS011;5187;52.378;9.018;2022-07-29T14:12:20;6.90;;;2.22;;
10283;SDS011;5187;52.378;9.018;2022-07-29T14:14:48;5.50;;;2.40;;
10283;SDS011;5187;52.378;9.018;2022-07-29T14:17:17;5.88;;;2.50;;
10283;SDS011;5187;52.378;9.018;2022-07-29T14:19:45;5.70;;;2.60;;
10283;SDS011;5187;52.378;9.018;2022-07-29T14:22:14;6.38;;;2.60;;
10283;SDS011;5187;52.378;9.018;2022-07-29T14:24:52;3.92;;;2.35;;
10283;SDS011;5187;52.378;9.018;2022-07-29T14:27:20;4.57;;;2.58;;
10283;SDS011;5187;52.378;9.018;2022-07-29T14:30:04;3.42;;;2.50;;
10283;SDS011;5187;52.378;9.018;2022-07-29T14:32:32;6.55;;;2.40;;
10283;SDS011;5187;52.378;9.018;2022-07-29T14:35:01;4.25;;;2.60;;
10283;SDS011;5187;52.378;9.018;2022-07-29T14:37:29;6.88;;;2.83;;
10283;SDS011;5187;52.378;9.018;2022-07-29T14:40:07;10.05;;;2.50;;
10283;SDS011;5187;52.378;9.018;2022-07-29T14:42:37;3.55;;;2.20;;
10283;SDS011;5187;52.378;9.018;2022-07-29T14:45:06;5.47;;;2.50;;
10283;SDS011;5187;52.378;9.018;2022-07-29T14:47:35;3.60;;;2.58;;
10283;SDS011;5187;52.378;9.018;2022-07-29T14:50:04;5.47;;;2.47;;
10283;SDS011;5187;52.378;9.018;2022-07-29T14:52:33;4.57;;;2.60;;
10283;SDS011;5187;52.378;9.018;2022-07-29T14:57:48;7.75;;;2.70;;
10283;SDS011;5187;52.378;9.018;2022-07-29T15:00:24;3.80;;;2.42;;
10283;SDS011;5187;52.378;9.018;2022-07-29T15:02:52;7.38;;;2.67;;
10283;SDS011;5187;52.378;9.018;2022-07-29T15:05:28;3.88;;;2.65;;
10283;SDS011;5187;52.378;9.018;2022-07-29T15:07:57;6.32;;;2.83;;
10283;SDS011;5187;52.378;9.018;2022-07-29T15:10:26;17.25;;;3.17;;
10283;SDS011;5187;52.378;9.018;2022-07-29T15:12:56;61.22;;;6.10;;
10283;SDS011;5187;52.378;9.018;2022-07-29T15:15:24;4.68;;;2.70;;
10283;SDS011;5187;52.378;9.018;2022-07-29T15:17:53;3.72;;;2.38;;
10283;SDS011;5187;52.378;9.018;2022-07-29T15:20:22;4.13;;;2.75;;
10283;SDS011;5187;52.378;9.018;2022-07-29T15:22:52;4.55;;;2.42;;
10283;SDS011;5187;52.378;9.018;2022-07-29T15:25:21;6.43;;;2.90;;
10283;SDS011;5187;52.378;9.018;2022-07-29T15:27:50;6.15;;;2.60;;
10283;SDS011;5187;52.378;9.018;2022-07-29T15:30:25;4.95;;;2.50;;
10283;SDS011;5187;52.378;9.018;2022-07-29T15:32:59;6.07;;;2.60;;
10283;SDS011;5187;52.378;9.018;2022-07-29T15:35:28;4.72;;;2.50;;
10283;SDS011;5187;52.378;9.018;2022-07-29T15:37:57;5.95;;;2.60;;
10283;SDS011;5187;52.378;9.018;2022-07-29T15:40:28;7.97;;;2.97;;
10283;SDS011;5187;52.378;9.018;2022-07-29T15:42:58;4.57;;;2.90;;
10283;SDS011;5187;52.378;9.018;2022-07-29T15:45:36;5.45;;;2.85;;
10283;SDS011;5187;52.378;9.018;2022-07-29T15:48:06;3.65;;;2.40;;